createdAt,value
2023-01-05T00:01:56.226Z,241.05
2023-01-05T00:04:26.015Z,245.07
2023-01-05T00:06:55.385Z,256.10
2023-01-05T00:09:24.819Z,251.35
2023-01-05T00:12:13.158Z,188.90
2023-01-05T00:15:00.937Z,192.52
2023-01-05T00:17:48.324Z,211.77
2023-01-05T00:20:38.888Z,216.77
2023-01-05T00:23:08.631Z,199.48
2023-01-05T00:25:42.958Z,206.88
2023-01-05T00:28:12.264Z,175.90
2023-01-05T00:30:47.605Z,160.13
2023-01-05T00:33:18.674Z,145.38
2023-01-05T00:35:48.020Z,165.00
2023-01-05T00:38:17.099Z,157.32
2023-01-05T00:40:46.301Z,175.50
2023-01-05T00:43:15.929Z,150.23
2023-01-05T00:45:45.861Z,157.75
2023-01-05T00:48:15.429Z,147.07
2023-01-05T00:50:44.698Z,170.05
2023-01-05T00:53:13.759Z,174.23
2023-01-05T00:55:42.878Z,162.25
2023-01-05T00:58:12.270Z,171.10
2023-01-05T01:00:47.445Z,179.07
2023-01-05T01:03:20.221Z,162.30
2023-01-05T01:06:03.055Z,170.82
2023-01-05T01:08:37.589Z,173.63
2023-01-05T01:11:13.471Z,147.77
2023-01-05T01:13:46.628Z,177.82
2023-01-05T01:16:17.896Z,168.35
2023-01-05T01:18:49.272Z,175.27
2023-01-05T01:21:19.398Z,154.65
2023-01-05T01:23:51.044Z,177.63
2023-01-05T01:26:21.530Z,177.18
2023-01-05T01:28:51.725Z,168.88
2023-01-05T01:31:20.997Z,172.63
2023-01-05T01:33:50.720Z,171.00
2023-01-05T01:36:20.263Z,196.75
2023-01-05T01:38:50.226Z,180.93
2023-01-05T01:41:20.956Z,171.48
2023-01-05T01:43:56.225Z,185.05
2023-01-05T01:46:29.277Z,184.52
2023-01-05T01:49:02.749Z,181.18
2023-01-05T01:51:33.826Z,167.68
2023-01-05T01:54:08.539Z,173.00
2023-01-05T01:56:44.627Z,173.38
2023-01-05T01:59:16.022Z,183.50
2023-01-05T02:01:46.220Z,201.63
2023-01-05T02:04:16.395Z,214.88
2023-01-05T02:06:46.020Z,198.63
2023-01-05T02:09:16.733Z,206.68
2023-01-05T02:11:58.223Z,244.30
2023-01-05T02:15:09.614Z,195.52
2023-01-05T02:17:52.415Z,198.70
2023-01-05T02:20:46.247Z,190.65
2023-01-05T02:23:27.780Z,210.20
2023-01-05T02:26:03.313Z,242.23
2023-01-05T02:29:00.256Z,208.35
2023-01-05T02:31:56.459Z,175.52
2023-01-05T02:34:38.119Z,189.85
2023-01-05T02:37:12.681Z,209.88
2023-01-05T02:39:50.934Z,221.65
2023-01-05T02:42:26.431Z,215.60
2023-01-05T02:44:56.911Z,196.55
2023-01-05T02:47:29.051Z,196.88
2023-01-05T02:50:14.445Z,205.75
2023-01-05T02:53:10.104Z,201.50
2023-01-05T02:55:48.209Z,199.68
2023-01-05T02:58:47.556Z,172.68
2023-01-05T03:01:32.813Z,192.65
2023-01-05T03:04:05.713Z,202.50
2023-01-05T03:06:37.687Z,201.32
2023-01-05T03:09:08.778Z,185.65
2023-01-05T03:12:02.285Z,225.95
2023-01-05T03:14:42.912Z,224.57
2023-01-05T03:17:15.653Z,199.65
2023-01-05T03:19:52.659Z,239.15
2023-01-05T03:22:50.628Z,197.23
2023-01-05T03:25:42.863Z,214.85
2023-01-05T03:29:09.059Z,219.50
2023-01-05T03:35:13.270Z,193.32
2023-01-05T03:37:57.866Z,196.70
2023-01-05T03:40:33.279Z,214.65
2023-01-05T03:43:06.251Z,181.45
2023-01-05T03:45:48.009Z,191.10
2023-01-05T03:48:24.209Z,197.30
2023-01-05T03:50:55.331Z,209.48
2023-01-05T03:53:27.028Z,269.35
2023-01-05T03:55:56.662Z,458.17
2023-01-05T03:58:27.984Z,208.55
2023-01-05T04:00:58.637Z,204.75
2023-01-05T04:03:31.966Z,212.00
2023-01-05T04:06:08.052Z,199.38
2023-01-05T04:08:39.968Z,232.20
2023-01-05T04:11:21.554Z,214.75
2023-01-05T04:14:01.339Z,211.07
2023-01-05T04:16:30.955Z,197.77
2023-01-05T04:19:04.074Z,222.75
2023-01-05T04:21:34.196Z,255.25
2023-01-05T04:24:05.548Z,325.30
2023-01-05T04:26:39.237Z,231.30
2023-01-05T04:29:09.094Z,295.65
2023-01-05T04:31:40.686Z,298.55
2023-01-05T04:34:10.633Z,231.15
2023-01-05T04:36:41.589Z,224.13
2023-01-05T04:39:16.914Z,345.27
2023-01-05T04:41:46.930Z,306.35
2023-01-05T04:44:16.804Z,228.10
2023-01-05T04:46:47.211Z,210.40
2023-01-05T04:49:16.842Z,220.70
2023-01-05T04:51:51.189Z,211.63
2023-01-05T04:54:23.954Z,235.68
2023-01-05T04:56:54.900Z,262.83
2023-01-05T04:59:25.593Z,243.80
2023-01-05T05:01:57.182Z,228.65
2023-01-05T05:04:28.677Z,238.82
2023-01-05T05:06:58.735Z,226.70
2023-01-05T05:09:32.647Z,221.55
2023-01-05T05:12:02.473Z,218.75
2023-01-05T05:14:33.606Z,229.48
2023-01-05T05:17:02.957Z,244.10
2023-01-05T05:19:33.207Z,223.85
2023-01-05T05:22:03.816Z,267.90
2023-01-05T05:24:33.644Z,249.98
2023-01-05T05:27:03.342Z,212.00
2023-01-05T05:29:32.726Z,242.65
2023-01-05T05:32:02.370Z,235.50
2023-01-05T05:34:31.634Z,248.95
2023-01-05T05:37:01.473Z,256.27
2023-01-05T05:39:31.244Z,254.13
2023-01-05T05:42:01.068Z,250.45
2023-01-05T05:44:30.840Z,242.30
2023-01-05T05:47:00.868Z,241.30
2023-01-05T05:49:30.570Z,235.18
2023-01-05T05:52:00.704Z,259.52
2023-01-05T05:54:30.928Z,248.00
2023-01-05T05:57:00.647Z,233.32
2023-01-05T05:59:30.543Z,251.77
2023-01-05T06:02:00.226Z,239.80
2023-01-05T06:04:29.756Z,217.02
2023-01-05T06:06:59.569Z,220.73
2023-01-05T06:09:28.974Z,242.30
2023-01-05T06:11:58.937Z,213.20
2023-01-05T06:14:28.950Z,212.73
2023-01-05T06:16:58.611Z,200.73
2023-01-05T06:19:27.985Z,210.77
2023-01-05T06:21:57.873Z,219.93
2023-01-05T06:24:27.623Z,229.13
2023-01-05T06:26:57.175Z,210.82
2023-01-05T06:29:26.743Z,207.75
2023-01-05T06:31:56.566Z,215.43
2023-01-05T06:34:27.599Z,223.57
2023-01-05T06:37:02.056Z,235.25
2023-01-05T09:15:28.211Z,275.02
2023-01-05T09:17:57.423Z,268.17
2023-01-05T09:20:26.591Z,274.40
2023-01-05T09:22:56.750Z,277.20
2023-01-05T09:25:26.088Z,255.93
2023-01-05T09:27:55.846Z,258.40
2023-01-05T09:30:25.123Z,274.60
2023-01-05T09:32:54.018Z,257.38
2023-01-05T09:35:23.191Z,257.50
2023-01-05T09:37:52.448Z,261.73
2023-01-05T09:40:22.830Z,256.10
2023-01-05T09:42:53.405Z,282.67
2023-01-05T09:45:28.350Z,272.48
2023-01-05T09:48:01.793Z,268.63
2023-01-05T09:50:34.792Z,399.45
2023-01-05T09:53:04.112Z,417.92
2023-01-05T09:55:37.479Z,429.25
2023-01-05T09:58:14.332Z,431.83
2023-01-05T10:00:48.973Z,448.58
2023-01-05T10:04:01.806Z,461.10
2023-01-05T10:06:17.395Z,466.83
2023-01-05T10:08:51.466Z,485.98
2023-01-05T10:11:44.343Z,519.90
2023-01-05T10:14:52.085Z,491.58
2023-01-05T10:17:43.673Z,461.30
2023-01-05T10:20:53.763Z,477.35
2023-01-05T10:27:23.788Z,472.75
2023-01-05T10:29:57.258Z,459.90
2023-01-05T10:32:50.125Z,468.77
2023-01-05T10:36:02.682Z,473.80
2023-01-05T10:39:00.502Z,486.83
2023-01-05T10:42:15.891Z,457.73
2023-01-05T10:45:10.470Z,461.92
2023-01-05T10:48:13.755Z,458.85
2023-01-05T10:51:05.858Z,507.73
2023-01-05T10:54:31.230Z,489.15
2023-01-05T10:57:42.644Z,474.45
2023-01-05T11:00:44.294Z,476.95
2023-01-05T11:04:26.537Z,486.30
2023-01-05T11:06:53.720Z,496.55
2023-01-05T11:09:46.783Z,487.73
2023-01-05T11:12:36.590Z,512.20
2023-01-05T11:15:26.339Z,496.48
2023-01-05T11:18:25.106Z,505.23
2023-01-05T11:21:20.880Z,518.40
2023-01-05T11:24:25.920Z,513.17
2023-01-05T11:27:26.394Z,527.22
2023-01-05T11:30:22.530Z,526.17
2023-01-05T11:33:32.466Z,500.02
2023-01-05T11:36:21.938Z,513.88
2023-01-05T11:39:27.293Z,467.95
2023-01-05T11:42:26.458Z,369.38
2023-01-05T11:45:29.751Z,394.98
2023-01-05T11:48:26.981Z,380.92
2023-01-05T11:51:43.039Z,372.40
2023-01-05T11:54:40.272Z,438.15
2023-01-05T11:57:30.578Z,424.80
2023-01-05T12:00:44.664Z,424.58
2023-01-05T12:03:59.642Z,418.42
2023-01-05T12:07:14.047Z,432.15
2023-01-05T12:10:22.049Z,417.40
2023-01-05T12:13:54.298Z,376.60
2023-01-05T12:16:57.713Z,323.33
2023-01-05T12:20:06.719Z,332.08
2023-01-05T12:23:21.484Z,353.00
2023-01-05T12:26:28.062Z,338.10
2023-01-05T12:36:33.291Z,383.27
2023-01-05T12:39:34.819Z,363.75
2023-01-05T12:42:51.832Z,357.45
2023-01-05T12:45:44.558Z,364.48
2023-01-05T12:48:39.084Z,357.17
2023-01-05T12:51:47.113Z,379.67
2023-01-05T12:54:49.719Z,367.95
2023-01-05T12:57:46.648Z,357.10
2023-01-05T13:00:42.864Z,382.98
2023-01-05T13:03:45.162Z,372.88
2023-01-05T13:06:43.271Z,372.95
2023-01-05T13:09:36.680Z,348.02
2023-01-05T13:12:27.116Z,373.50
2023-01-05T13:15:25.371Z,369.88
2023-01-05T13:18:20.285Z,345.25
2023-01-05T13:21:15.006Z,386.15
2023-01-05T13:24:22.105Z,358.08
2023-01-05T13:27:14.266Z,369.98
2023-01-05T13:30:05.405Z,359.25
2023-01-05T13:33:32.357Z,383.55
2023-01-05T13:36:55.621Z,359.48
2023-01-05T13:39:52.147Z,358.25
2023-01-05T13:42:47.697Z,369.00
2023-01-05T13:46:00.647Z,356.85
2023-01-05T13:49:26.175Z,367.77
2023-01-05T13:52:59.963Z,351.95
2023-01-05T13:56:03.581Z,350.92
2023-01-05T13:59:02.342Z,367.45
2023-01-05T14:01:52.506Z,355.00
2023-01-05T14:04:48.128Z,354.35
2023-01-05T14:07:41.485Z,374.33
2023-01-05T14:10:34.320Z,361.88
2023-01-05T14:13:49.718Z,366.38
2023-01-05T14:16:41.266Z,372.33
2023-01-05T14:19:37.208Z,383.33
2023-01-05T14:22:38.830Z,399.35
2023-01-05T14:25:40.770Z,386.45
2023-01-05T14:28:31.026Z,396.73
2023-01-05T14:31:28.978Z,423.88
2023-01-05T14:34:21.194Z,385.50
2023-01-05T14:37:30.064Z,410.27
2023-01-05T14:40:31.261Z,425.35
2023-01-05T14:43:27.747Z,430.88
2023-01-05T14:46:18.676Z,428.95
2023-01-05T14:49:19.016Z,410.73
2023-01-05T14:52:18.919Z,422.58
2023-01-05T14:55:37.111Z,419.77
2023-01-05T14:58:39.464Z,433.83
2023-01-05T15:01:49.444Z,451.98
2023-01-05T15:04:42.075Z,450.02
2023-01-05T15:07:46.119Z,472.98
2023-01-05T15:11:17.846Z,468.48
2023-01-05T15:14:35.945Z,444.45
2023-01-05T15:18:00.240Z,476.48
2023-01-05T15:21:19.185Z,442.02
2023-01-05T15:24:51.022Z,454.95
2023-01-05T15:28:37.357Z,454.77
2023-01-05T15:31:52.400Z,433.13
2023-01-05T15:35:13.147Z,449.25
2023-01-05T15:38:21.779Z,466.02
2023-01-05T15:41:13.993Z,448.42
2023-01-05T15:44:04.848Z,481.15
2023-01-05T15:46:55.472Z,478.75
2023-01-05T15:49:49.930Z,473.98
2023-01-05T15:52:41.062Z,449.83
2023-01-05T15:55:32.962Z,442.42
2023-01-05T15:58:26.741Z,443.20
2023-01-05T16:01:18.153Z,462.63
2023-01-05T16:04:10.130Z,462.52
2023-01-05T16:07:03.139Z,474.73
2023-01-05T16:09:52.342Z,446.33
2023-01-05T16:12:43.458Z,449.00
2023-01-05T16:15:36.221Z,480.38
2023-01-05T16:18:56.234Z,488.02
2023-01-05T16:21:57.142Z,487.27
2023-01-05T16:24:55.762Z,458.70
2023-01-05T16:27:59.527Z,453.55
2023-01-05T16:30:52.164Z,464.33
2023-01-05T16:33:41.791Z,443.90
2023-01-05T16:36:31.725Z,472.10
2023-01-05T16:39:25.995Z,446.42
2023-01-05T16:42:44.021Z,467.75
2023-01-05T16:45:36.365Z,440.48
2023-01-05T16:48:49.379Z,417.73
2023-01-05T16:51:43.139Z,436.40
2023-01-05T16:54:42.314Z,442.10
2023-01-05T16:57:36.839Z,449.83
2023-01-05T17:00:37.899Z,420.25
2023-01-05T17:03:33.379Z,436.80
2023-01-05T17:06:24.471Z,430.13
2023-01-05T17:09:32.935Z,443.42
2023-01-05T17:12:23.874Z,448.92
2023-01-05T17:15:22.285Z,452.90
2023-01-05T17:18:20.173Z,454.90
2023-01-05T17:21:09.792Z,445.98
2023-01-05T17:24:02.354Z,444.30
2023-01-05T17:26:53.159Z,470.35
2023-01-05T17:29:43.994Z,426.70
2023-01-05T17:32:33.541Z,444.05
2023-01-05T17:35:26.106Z,450.30
2023-01-05T17:38:16.742Z,469.52
2023-01-05T17:41:07.105Z,450.00
2023-01-05T17:43:56.305Z,449.58
2023-01-05T17:46:50.026Z,460.98
2023-01-05T17:49:41.181Z,440.27
2023-01-05T17:52:32.577Z,430.65
2023-01-05T17:55:24.256Z,434.67
2023-01-05T17:58:15.804Z,467.40
2023-01-05T18:01:07.478Z,460.55
2023-01-05T18:03:56.994Z,453.33
2023-01-05T18:06:46.502Z,478.15
2023-01-05T18:09:39.099Z,445.38
2023-01-05T18:12:29.617Z,516.08
2023-01-05T18:15:20.607Z,442.92
2023-01-05T18:18:09.996Z,439.88
2023-01-05T18:21:05.244Z,423.95
2023-01-05T18:23:54.868Z,460.52
2023-01-05T18:26:45.133Z,442.42
2023-01-05T18:29:36.066Z,492.77
2023-01-05T18:32:26.388Z,443.27
2023-01-05T18:35:18.755Z,463.52
2023-01-05T18:38:09.268Z,446.05
2023-01-05T18:40:58.521Z,450.17
2023-01-05T18:43:52.069Z,429.65
2023-01-05T18:46:42.310Z,427.88
2023-01-05T18:49:33.215Z,408.60
2023-01-05T18:52:23.666Z,438.65
2023-01-05T18:55:13.598Z,441.42
2023-01-05T18:58:04.513Z,437.90
2023-01-05T19:00:54.521Z,432.88
2023-01-05T19:03:44.508Z,442.05
2023-01-05T19:06:34.260Z,459.08
2023-01-05T19:09:23.807Z,424.33
2023-01-05T19:12:14.169Z,403.95
2023-01-05T19:15:03.577Z,436.42
2023-01-05T19:17:54.991Z,445.40
2023-01-05T19:20:44.489Z,397.48
2023-01-05T19:23:34.836Z,468.38
2023-01-05T19:26:25.495Z,417.17
2023-01-05T19:29:16.880Z,411.35
2023-01-05T19:32:07.014Z,407.75
2023-01-05T19:34:56.629Z,402.00
2023-01-05T19:37:46.195Z,406.33
2023-01-05T19:40:36.851Z,434.67
2023-01-05T19:43:26.389Z,418.55
2023-01-05T19:46:18.885Z,422.77
2023-01-05T19:49:09.475Z,404.58
2023-01-05T19:51:59.829Z,411.20
2023-01-05T19:54:49.233Z,418.40
2023-01-05T19:57:39.503Z,436.95
2023-01-05T20:00:28.942Z,425.55
2023-01-05T20:03:18.867Z,406.92
2023-01-05T20:06:23.432Z,466.77
2023-01-05T20:09:16.678Z,415.48
2023-01-05T20:12:14.433Z,422.33
2023-01-05T20:15:05.732Z,435.13
2023-01-05T20:17:55.512Z,433.20
2023-01-05T20:20:45.762Z,439.52
2023-01-05T20:23:37.777Z,396.08
2023-01-05T20:26:29.244Z,410.73
2023-01-05T20:29:20.791Z,412.33
2023-01-05T20:32:18.700Z,415.58
2023-01-05T20:35:09.267Z,387.10
2023-01-05T20:37:59.659Z,378.10
2023-01-05T20:40:49.118Z,396.70
2023-01-05T20:43:39.637Z,403.17
2023-01-05T20:46:33.518Z,388.42
2023-01-05T20:49:24.494Z,398.75
2023-01-05T20:52:16.911Z,388.95
2023-01-05T20:55:08.306Z,377.33
2023-01-05T20:57:57.947Z,403.30
2023-01-05T21:01:11.342Z,399.38
2023-01-05T21:04:00.374Z,411.70
2023-01-05T21:06:52.725Z,423.52
2023-01-05T21:09:43.496Z,410.38
2023-01-05T21:12:33.326Z,393.17
2023-01-05T21:15:23.096Z,372.25
2023-01-05T21:18:12.601Z,366.98
2023-01-05T21:21:05.742Z,408.83
2023-01-05T21:23:56.461Z,408.55
2023-01-05T21:26:46.478Z,397.77
2023-01-05T21:29:35.936Z,363.00
2023-01-05T21:32:25.294Z,403.23
2023-01-05T21:35:14.849Z,391.67
2023-01-05T21:38:05.348Z,405.70
2023-01-05T21:41:06.307Z,391.65
2023-01-05T21:43:55.710Z,396.67
2023-01-05T21:46:45.497Z,407.50
2023-01-05T21:49:36.068Z,389.10
2023-01-05T21:52:44.368Z,387.10
2023-01-05T21:55:51.788Z,403.75
2023-01-05T21:58:41.631Z,380.75
2023-01-05T22:01:31.831Z,380.88
2023-01-05T22:04:21.434Z,382.90
2023-01-05T22:07:11.293Z,361.02
2023-01-05T22:10:00.789Z,413.27
2023-01-05T22:12:50.509Z,383.75
2023-01-05T22:15:40.135Z,384.52
2023-01-05T22:18:29.552Z,397.92
2023-01-05T22:21:18.988Z,399.45
2023-01-05T22:24:10.581Z,420.23
2023-01-05T22:27:00.255Z,351.75
2023-01-05T22:29:49.973Z,384.40
2023-01-05T22:32:39.666Z,376.05
2023-01-05T22:35:30.366Z,404.73
2023-01-05T22:38:19.961Z,354.27
2023-01-05T22:41:12.999Z,367.45
2023-01-05T22:44:03.590Z,357.98
2023-01-05T22:46:53.070Z,390.20
2023-01-05T22:49:42.558Z,386.25
2023-01-05T22:52:32.716Z,390.55
2023-01-05T22:55:22.232Z,350.83
2023-01-05T22:58:12.643Z,354.88
2023-01-05T23:01:12.428Z,358.95
2023-01-05T23:04:03.984Z,351.52
2023-01-05T23:06:53.337Z,339.17
2023-01-05T23:09:42.976Z,353.92
2023-01-05T23:12:32.744Z,363.45
2023-01-05T23:15:22.174Z,346.27
2023-01-05T23:18:11.895Z,337.58
2023-01-05T23:21:04.916Z,324.60
2023-01-05T23:23:56.675Z,322.00
2023-01-05T23:26:46.085Z,324.88
2023-01-05T23:29:36.156Z,345.90
2023-01-05T23:32:25.928Z,370.88
2023-01-05T23:35:15.571Z,340.60
2023-01-05T23:38:05.285Z,324.27
2023-01-05T23:40:56.625Z,296.75
2023-01-05T23:43:47.774Z,295.83
2023-01-05T23:46:37.222Z,271.95
2023-01-05T23:49:26.668Z,312.20
2023-01-05T23:52:16.266Z,308.50
2023-01-05T23:55:06.571Z,324.02
2023-01-05T23:57:56.283Z,328.27
